sensor_id;sensor_type;location;lat;lon;timestamp;P1;durP1;ratioP1;P2;durP2;ratioP2
64367;SDS011;50692;53.314;-6.300;2023-04-03T00:01:54;1.57;;;0.90;;
64367;SDS011;50692;53.314;-6.300;2023-04-03T00:04:39;1.23;;;0.90;;
64367;SDS011;50692;53.314;-6.300;2023-04-03T00:07:26;2.37;;;0.90;;
64367;SDS011;50692;53.314;-6.300;2023-04-03T00:10:12;1.47;;;0.80;;
64367;SDS011;50692;53.314;-6.300;2023-04-03T00:12:59;2.90;;;1.40;;
64367;SDS011;50692;53.314;-6.300;2023-04-03T00:15:44;2.37;;;1.17;;
64367;SDS011;50692;53.314;-6.300;2023-04-03T00:18:30;3.40;;;1.20;;
64367;SDS011;50692;53.314;-6.300;2023-04-03T00:21:16;2.70;;;1.47;;
64367;SDS011;50692;53.314;-6.300;2023-04-03T00:24:02;2.33;;;1.10;;
64367;SDS011;50692;53.314;-6.300;2023-04-03T00:26:48;3.27;;;1.10;;
64367;SDS011;50692;53.314;-6.300;2023-04-03T00:29:34;2.37;;;1.10;;
64367;SDS011;50692;53.314;-6.300;2023-04-03T00:32:20;1.43;;;1.00;;
64367;SDS011;50692;53.314;-6.300;2023-04-03T00:35:06;1.60;;;1.07;;
64367;SDS011;50692;53.314;-6.300;2023-04-03T00:37:52;3.43;;;1.20;;
64367;SDS011;50692;53.314;-6.300;2023-04-03T00:40:45;1.50;;;1.10;;
64367;SDS011;50692;53.314;-6.300;2023-04-03T00:43:32;2.67;;;1.20;;
64367;SDS011;50692;53.314;-6.300;2023-04-03T00:46:17;2.17;;;1.20;;
64367;SDS011;50692;53.314;-6.300;2023-04-03T00:49:03;2.37;;;1.40;;
64367;SDS011;50692;53.314;-6.300;2023-04-03T00:51:49;3.17;;;1.30;;
64367;SDS011;50692;53.314;-6.300;2023-04-03T00:54:36;2.43;;;1.40;;
64367;SDS011;50692;53.314;-6.300;2023-04-03T00:57:23;2.60;;;1.27;;
64367;SDS011;50692;53.314;-6.300;2023-04-03T01:00:11;1.63;;;1.20;;
64367;SDS011;50692;53.314;-6.300;2023-04-03T01:02:59;1.87;;;1.30;;
64367;SDS011;50692;53.314;-6.300;2023-04-03T01:05:45;2.33;;;1.10;;
64367;SDS011;50692;53.314;-6.300;2023-04-03T01:08:31;3.33;;;1.40;;
64367;SDS011;50692;53.314;-6.300;2023-04-03T01:11:18;2.10;;;1.20;;
64367;SDS011;50692;53.314;-6.300;2023-04-03T01:14:04;3.20;;;1.37;;
64367;SDS011;50692;53.314;-6.300;2023-04-03T01:16:54;1.50;;;1.10;;
64367;SDS011;50692;53.314;-6.300;2023-04-03T01:19:40;1.05;;;0.95;;
64367;SDS011;50692;53.314;-6.300;2023-04-03T01:22:35;0.90;;;0.83;;
64367;SDS011;50692;53.314;-6.300;2023-04-03T01:25:27;1.27;;;1.17;;
64367;SDS011;50692;53.314;-6.300;2023-04-03T01:28:15;3.03;;;1.27;;
64367;SDS011;50692;53.314;-6.300;2023-04-03T01:33:58;1.83;;;1.10;;
64367;SDS011;50692;53.314;-6.300;2023-04-03T01:36:44;0.80;;;0.80;;
64367;SDS011;50692;53.314;-6.300;2023-04-03T01:39:30;1.90;;;1.23;;
64367;SDS011;50692;53.314;-6.300;2023-04-03T01:42:16;1.93;;;1.40;;
64367;SDS011;50692;53.314;-6.300;2023-04-03T01:45:02;2.00;;;1.47;;
64367;SDS011;50692;53.314;-6.300;2023-04-03T01:47:48;1.27;;;1.17;;
64367;SDS011;50692;53.314;-6.300;2023-04-03T01:50:34;2.30;;;1.30;;
64367;SDS011;50692;53.314;-6.300;2023-04-03T01:53:19;3.33;;;1.30;;
64367;SDS011;50692;53.314;-6.300;2023-04-03T01:56:06;1.53;;;1.30;;
64367;SDS011;50692;53.314;-6.300;2023-04-03T01:58:52;1.67;;;1.07;;
64367;SDS011;50692;53.314;-6.300;2023-04-03T02:01:37;2.43;;;1.30;;
64367;SDS011;50692;53.314;-6.300;2023-04-03T02:04:23;2.20;;;1.67;;
64367;SDS011;50692;53.314;-6.300;2023-04-03T02:07:09;2.03;;;1.20;;
64367;SDS011;50692;53.314;-6.300;2023-04-03T02:09:55;1.60;;;1.10;;
64367;SDS011;50692;53.314;-6.300;2023-04-03T02:12:41;3.17;;;1.27;;
64367;SDS011;50692;53.314;-6.300;2023-04-03T02:15:26;1.53;;;1.20;;
64367;SDS011;50692;53.314;-6.300;2023-04-03T02:18:12;1.23;;;1.13;;
64367;SDS011;50692;53.314;-6.300;2023-04-03T02:20:58;1.40;;;1.10;;
64367;SDS011;50692;53.314;-6.300;2023-04-03T02:23:44;1.20;;;1.10;;
64367;SDS011;50692;53.314;-6.300;2023-04-03T02:26:30;1.33;;;1.20;;
64367;SDS011;50692;53.314;-6.300;2023-04-03T02:29:16;1.53;;;1.27;;
64367;SDS011;50692;53.314;-6.300;2023-04-03T02:32:01;1.77;;;1.20;;
64367;SDS011;50692;53.314;-6.300;2023-04-03T02:34:47;3.03;;;1.70;;
64367;SDS011;50692;53.314;-6.300;2023-04-03T02:37:33;2.27;;;1.30;;
64367;SDS011;50692;53.314;-6.300;2023-04-03T02:40:19;2.30;;;1.60;;
64367;SDS011;50692;53.314;-6.300;2023-04-03T02:43:07;3.23;;;1.73;;
64367;SDS011;50692;53.314;-6.300;2023-04-03T02:45:52;2.93;;;1.90;;
64367;SDS011;50692;53.314;-6.300;2023-04-03T02:48:38;3.23;;;1.70;;
64367;SDS011;50692;53.314;-6.300;2023-04-03T02:51:26;2.27;;;1.47;;
64367;SDS011;50692;53.314;-6.300;2023-04-03T02:54:12;2.83;;;1.60;;
64367;SDS011;50692;53.314;-6.300;2023-04-03T02:56:59;2.90;;;1.90;;
64367;SDS011;50692;53.314;-6.300;2023-04-03T02:59:46;3.23;;;1.97;;
64367;SDS011;50692;53.314;-6.300;2023-04-03T03:02:32;2.40;;;2.10;;
64367;SDS011;50692;53.314;-6.300;2023-04-03T03:05:19;3.77;;;1.60;;
64367;SDS011;50692;53.314;-6.300;2023-04-03T03:08:04;3.30;;;1.90;;
64367;SDS011;50692;53.314;-6.300;2023-04-03T03:10:50;5.73;;;2.63;;
64367;SDS011;50692;53.314;-6.300;2023-04-03T03:13:36;2.77;;;1.80;;
64367;SDS011;50692;53.314;-6.300;2023-04-03T03:16:22;2.93;;;2.03;;
64367;SDS011;50692;53.314;-6.300;2023-04-03T03:19:08;3.30;;;2.00;;
64367;SDS011;50692;53.314;-6.300;2023-04-03T03:21:54;3.17;;;2.10;;
64367;SDS011;50692;53.314;-6.300;2023-04-03T03:24:40;2.60;;;2.20;;
64367;SDS011;50692;53.314;-6.300;2023-04-03T03:27:26;4.10;;;2.33;;
64367;SDS011;50692;53.314;-6.300;2023-04-03T03:30:13;5.40;;;2.40;;
64367;SDS011;50692;53.314;-6.300;2023-04-03T03:32:59;4.13;;;2.43;;
64367;SDS011;50692;53.314;-6.300;2023-04-03T03:35:45;4.43;;;2.20;;
64367;SDS011;50692;53.314;-6.300;2023-04-03T03:38:31;3.67;;;2.50;;
64367;SDS011;50692;53.314;-6.300;2023-04-03T03:41:17;3.33;;;2.53;;
64367;SDS011;50692;53.314;-6.300;2023-04-03T03:44:02;3.67;;;2.50;;
64367;SDS011;50692;53.314;-6.300;2023-04-03T03:46:48;3.63;;;2.47;;
64367;SDS011;50692;53.314;-6.300;2023-04-03T03:49:34;4.50;;;2.40;;
64367;SDS011;50692;53.314;-6.300;2023-04-03T03:52:20;4.77;;;2.67;;
64367;SDS011;50692;53.314;-6.300;2023-04-03T03:55:06;4.67;;;2.97;;
64367;SDS011;50692;53.314;-6.300;2023-04-03T03:57:52;4.60;;;3.13;;
64367;SDS011;50692;53.314;-6.300;2023-04-03T04:00:38;3.80;;;3.03;;
64367;SDS011;50692;53.314;-6.300;2023-04-03T04:03:24;3.90;;;2.70;;
64367;SDS011;50692;53.314;-6.300;2023-04-03T04:06:10;6.30;;;3.07;;
64367;SDS011;50692;53.314;-6.300;2023-04-03T04:08:56;4.17;;;3.03;;
64367;SDS011;50692;53.314;-6.300;2023-04-03T04:11:42;4.97;;;2.90;;
64367;SDS011;50692;53.314;-6.300;2023-04-03T04:14:27;4.67;;;3.07;;
64367;SDS011;50692;53.314;-6.300;2023-04-03T04:17:13;4.27;;;3.20;;
64367;SDS011;50692;53.314;-6.300;2023-04-03T04:19:59;4.90;;;3.00;;
64367;SDS011;50692;53.314;-6.300;2023-04-03T04:22:45;4.60;;;3.30;;
64367;SDS011;50692;53.314;-6.300;2023-04-03T04:25:31;4.73;;;3.30;;
64367;SDS011;50692;53.314;-6.300;2023-04-03T04:28:18;4.40;;;3.23;;
64367;SDS011;50692;53.314;-6.300;2023-04-03T04:31:04;4.73;;;3.20;;
64367;SDS011;50692;53.314;-6.300;2023-04-03T04:33:50;6.30;;;3.13;;
64367;SDS011;50692;53.314;-6.300;2023-04-03T04:36:35;5.67;;;3.23;;
64367;SDS011;50692;53.314;-6.300;2023-04-03T04:39:21;4.83;;;3.40;;
64367;SDS011;50692;53.314;-6.300;2023-04-03T04:42:07;5.67;;;3.33;;
64367;SDS011;50692;53.314;-6.300;2023-04-03T04:44:57;4.70;;;3.63;;
64367;SDS011;50692;53.314;-6.300;2023-04-03T04:47:43;4.07;;;2.93;;
64367;SDS011;50692;53.314;-6.300;2023-04-03T04:50:29;3.60;;;2.83;;
64367;SDS011;50692;53.314;-6.300;2023-04-03T04:53:15;4.17;;;3.03;;
64367;SDS011;50692;53.314;-6.300;2023-04-03T04:56:01;4.17;;;3.20;;
64367;SDS011;50692;53.314;-6.300;2023-04-03T04:58:47;3.97;;;3.13;;
64367;SDS011;50692;53.314;-6.300;2023-04-03T05:01:32;5.30;;;2.80;;
64367;SDS011;50692;53.314;-6.300;2023-04-03T05:04:18;4.47;;;2.50;;
64367;SDS011;50692;53.314;-6.300;2023-04-03T05:07:04;3.70;;;2.67;;
64367;SDS011;50692;53.314;-6.300;2023-04-03T05:09:50;3.60;;;3.30;;
64367;SDS011;50692;53.314;-6.300;2023-04-03T05:12:36;3.53;;;3.00;;
64367;SDS011;50692;53.314;-6.300;2023-04-03T05:15:22;4.73;;;2.60;;
64367;SDS011;50692;53.314;-6.300;2023-04-03T05:18:07;6.00;;;2.47;;
64367;SDS011;50692;53.314;-6.300;2023-04-03T05:20:53;4.87;;;3.30;;
64367;SDS011;50692;53.314;-6.300;2023-04-03T05:23:39;4.13;;;2.90;;
64367;SDS011;50692;53.314;-6.300;2023-04-03T05:26:25;4.20;;;2.60;;
64367;SDS011;50692;53.314;-6.300;2023-04-03T05:29:11;4.07;;;2.60;;
64367;SDS011;50692;53.314;-6.300;2023-04-03T05:31:57;3.60;;;2.87;;
64367;SDS011;50692;53.314;-6.300;2023-04-03T05:34:43;4.33;;;2.20;;
64367;SDS011;50692;53.314;-6.300;2023-04-03T05:37:29;3.00;;;1.83;;
64367;SDS011;50692;53.314;-6.300;2023-04-03T05:40:14;3.90;;;2.60;;
64367;SDS011;50692;53.314;-6.300;2023-04-03T05:43:00;4.00;;;2.93;;
64367;SDS011;50692;53.314;-6.300;2023-04-03T05:45:47;6.77;;;3.17;;
64367;SDS011;50692;53.314;-6.300;2023-04-03T05:48:33;5.63;;;3.23;;
64367;SDS011;50692;53.314;-6.300;2023-04-03T05:51:22;6.37;;;3.90;;
64367;SDS011;50692;53.314;-6.300;2023-04-03T05:54:18;5.43;;;3.60;;
64367;SDS011;50692;53.314;-6.300;2023-04-03T05:57:09;5.60;;;3.67;;
64367;SDS011;50692;53.314;-6.300;2023-04-03T05:59:54;6.90;;;3.70;;
64367;SDS011;50692;53.314;-6.300;2023-04-03T06:02:41;5.67;;;4.07;;
64367;SDS011;50692;53.314;-6.300;2023-04-03T06:05:28;6.27;;;3.93;;
64367;SDS011;50692;53.314;-6.300;2023-04-03T06:08:14;8.57;;;4.30;;
64367;SDS011;50692;53.314;-6.300;2023-04-03T06:11:00;5.57;;;3.40;;
64367;SDS011;50692;53.314;-6.300;2023-04-03T06:13:47;8.80;;;4.20;;
64367;SDS011;50692;53.314;-6.300;2023-04-03T06:16:33;6.67;;;4.07;;
64367;SDS011;50692;53.314;-6.300;2023-04-03T06:19:19;8.37;;;4.63;;
64367;SDS011;50692;53.314;-6.300;2023-04-03T06:22:05;6.30;;;3.80;;
64367;SDS011;50692;53.314;-6.300;2023-04-03T06:24:51;7.60;;;4.77;;
64367;SDS011;50692;53.314;-6.300;2023-04-03T06:27:38;6.27;;;4.13;;
64367;SDS011;50692;53.314;-6.300;2023-04-03T06:30:24;8.50;;;5.10;;
64367;SDS011;50692;53.314;-6.300;2023-04-03T06:33:10;8.53;;;5.07;;
64367;SDS011;50692;53.314;-6.300;2023-04-03T06:35:59;6.57;;;4.10;;
64367;SDS011;50692;53.314;-6.300;2023-04-03T06:38:45;9.40;;;5.40;;
64367;SDS011;50692;53.314;-6.300;2023-04-03T06:41:31;7.40;;;5.07;;
64367;SDS011;50692;53.314;-6.300;2023-04-03T06:44:17;8.27;;;4.97;;
64367;SDS011;50692;53.314;-6.300;2023-04-03T06:47:03;6.37;;;4.20;;
64367;SDS011;50692;53.314;-6.300;2023-04-03T06:49:49;7.37;;;4.20;;
64367;SDS011;50692;53.314;-6.300;2023-04-03T06:52:35;9.23;;;4.97;;
64367;SDS011;50692;53.314;-6.300;2023-04-03T06:55:21;7.60;;;4.30;;
64367;SDS011;50692;53.314;-6.300;2023-04-03T06:58:07;5.93;;;3.90;;
64367;SDS011;50692;53.314;-6.300;2023-04-03T07:00:53;9.50;;;4.60;;
64367;SDS011;50692;53.314;-6.300;2023-04-03T07:03:39;5.03;;;3.63;;
64367;SDS011;50692;53.314;-6.300;2023-04-03T07:06:25;7.57;;;3.90;;
64367;SDS011;50692;53.314;-6.300;2023-04-03T07:09:14;7.57;;;3.97;;
64367;SDS011;50692;53.314;-6.300;2023-04-03T07:12:00;7.77;;;4.20;;
64367;SDS011;50692;53.314;-6.300;2023-04-03T07:14:46;6.07;;;3.90;;
64367;SDS011;50692;53.314;-6.300;2023-04-03T07:17:32;7.83;;;4.30;;
64367;SDS011;50692;53.314;-6.300;2023-04-03T07:20:18;6.97;;;3.97;;
64367;SDS011;50692;53.314;-6.300;2023-04-03T07:23:04;6.80;;;4.13;;
64367;SDS011;50692;53.314;-6.300;2023-04-03T07:25:50;4.90;;;3.33;;
64367;SDS011;50692;53.314;-6.300;2023-04-03T07:28:37;7.03;;;3.83;;
64367;SDS011;50692;53.314;-6.300;2023-04-03T07:31:25;7.57;;;4.17;;
64367;SDS011;50692;53.314;-6.300;2023-04-03T07:34:11;6.87;;;4.07;;
64367;SDS011;50692;53.314;-6.300;2023-04-03T07:36:57;6.63;;;4.03;;
64367;SDS011;50692;53.314;-6.300;2023-04-03T07:39:43;9.23;;;4.60;;
64367;SDS011;50692;53.314;-6.300;2023-04-03T07:42:30;7.37;;;4.33;;
64367;SDS011;50692;53.314;-6.300;2023-04-03T07:45:16;8.73;;;4.47;;
64367;SDS011;50692;53.314;-6.300;2023-04-03T07:48:02;7.67;;;4.33;;
64367;SDS011;50692;53.314;-6.300;2023-04-03T07:50:48;7.27;;;3.77;;
64367;SDS011;50692;53.314;-6.300;2023-04-03T07:53:34;8.80;;;3.87;;
64367;SDS011;50692;53.314;-6.300;2023-04-03T07:56:20;7.33;;;4.20;;
64367;SDS011;50692;53.314;-6.300;2023-04-03T07:59:06;8.27;;;4.03;;
64367;SDS011;50692;53.314;-6.300;2023-04-03T08:01:52;6.70;;;3.90;;
64367;SDS011;50692;53.314;-6.300;2023-04-03T08:04:38;6.33;;;3.63;;
64367;SDS011;50692;53.314;-6.300;2023-04-03T08:07:24;8.67;;;4.07;;
64367;SDS011;50692;53.314;-6.300;2023-04-03T08:10:10;5.23;;;3.17;;
64367;SDS011;50692;53.314;-6.300;2023-04-03T08:12:56;9.27;;;3.53;;
64367;SDS011;50692;53.314;-6.300;2023-04-03T08:15:42;6.23;;;3.13;;
64367;SDS011;50692;53.314;-6.300;2023-04-03T08:18:28;6.33;;;3.13;;
64367;SDS011;50692;53.314;-6.300;2023-04-03T08:21:15;6.87;;;3.53;;
64367;SDS011;50692;53.314;-6.300;2023-04-03T08:24:01;5.47;;;3.40;;
64367;SDS011;50692;53.314;-6.300;2023-04-03T08:26:46;5.50;;;3.50;;
64367;SDS011;50692;53.314;-6.300;2023-04-03T08:29:32;6.53;;;3.07;;
64367;SDS011;50692;53.314;-6.300;2023-04-03T08:32:18;8.70;;;3.87;;
64367;SDS011;50692;53.314;-6.300;2023-04-03T08:35:04;5.93;;;3.40;;
64367;SDS011;50692;53.314;-6.300;2023-04-03T08:37:50;8.03;;;3.97;;
64367;SDS011;50692;53.314;-6.300;2023-04-03T08:40:36;7.17;;;4.07;;
64367;SDS011;50692;53.314;-6.300;2023-04-03T08:43:30;5.93;;;4.23;;
64367;SDS011;50692;53.314;-6.300;2023-04-03T08:46:42;8.23;;;4.23;;
64367;SDS011;50692;53.314;-6.300;2023-04-03T08:49:48;6.17;;;3.50;;
64367;SDS011;50692;53.314;-6.300;2023-04-03T08:52:39;8.93;;;4.57;;
64367;SDS011;50692;53.314;-6.300;2023-04-03T08:55:34;6.77;;;3.80;;
64367;SDS011;50692;53.314;-6.300;2023-04-03T08:58:26;6.30;;;4.03;;
64367;SDS011;50692;53.314;-6.300;2023-04-03T09:04:10;7.07;;;4.23;;
64367;SDS011;50692;53.314;-6.300;2023-04-03T09:07:10;6.13;;;4.00;;
64367;SDS011;50692;53.314;-6.300;2023-04-03T09:10:07;7.93;;;3.67;;
64367;SDS011;50692;53.314;-6.300;2023-04-03T09:12:59;6.07;;;3.85;;
64367;SDS011;50692;53.314;-6.300;2023-04-03T09:15:50;6.97;;;3.63;;
64367;SDS011;50692;53.314;-6.300;2023-04-03T09:18:39;7.55;;;3.63;;
64367;SDS011;50692;53.314;-6.300;2023-04-03T09:21:37;9.07;;;3.40;;
64367;SDS011;50692;53.314;-6.300;2023-04-03T09:24:23;7.55;;;4.15;;
64367;SDS011;50692;53.314;-6.300;2023-04-03T09:27:11;6.88;;;3.72;;
64367;SDS011;50692;53.314;-6.300;2023-04-03T09:29:57;6.53;;;3.30;;
64367;SDS011;50692;53.314;-6.300;2023-04-03T09:32:47;6.15;;;3.45;;
64367;SDS011;50692;53.314;-6.300;2023-04-03T09:35:36;8.40;;;3.58;;
64367;SDS011;50692;53.314;-6.300;2023-04-03T09:38:23;6.63;;;3.90;;
64367;SDS011;50692;53.314;-6.300;2023-04-03T09:41:17;5.90;;;3.85;;
64367;SDS011;50692;53.314;-6.300;2023-04-03T09:44:17;5.63;;;3.58;;
64367;SDS011;50692;53.314;-6.300;2023-04-03T09:47:19;8.98;;;3.67;;
64367;SDS011;50692;53.314;-6.300;2023-04-03T09:52:59;5.75;;;3.35;;
64367;SDS011;50692;53.314;-6.300;2023-04-03T09:55:51;6.13;;;3.28;;
64367;SDS011;50692;53.314;-6.300;2023-04-03T09:58:38;7.88;;;4.18;;
64367;SDS011;50692;53.314;-6.300;2023-04-03T10:01:30;7.07;;;3.85;;
64367;SDS011;50692;53.314;-6.300;2023-04-03T10:04:18;5.75;;;3.80;;
64367;SDS011;50692;53.314;-6.300;2023-04-03T10:07:05;6.43;;;3.58;;
64367;SDS011;50692;53.314;-6.300;2023-04-03T10:13:19;4.63;;;3.17;;
64367;SDS011;50692;53.314;-6.300;2023-04-03T10:16:11;8.60;;;3.58;;
64367;SDS011;50692;53.314;-6.300;2023-04-03T10:19:03;7.15;;;3.83;;
64367;SDS011;50692;53.314;-6.300;2023-04-03T10:21:59;9.93;;;4.32;;
64367;SDS011;50692;53.314;-6.300;2023-04-03T10:31:33;6.65;;;3.17;;
64367;SDS011;50692;53.314;-6.300;2023-04-03T10:34:06;5.82;;;3.60;;
64367;SDS011;50692;53.314;-6.300;2023-04-03T10:37:19;6.28;;;3.67;;
64367;SDS011;50692;53.314;-6.300;2023-04-03T10:40:15;6.93;;;3.45;;
64367;SDS011;50692;53.314;-6.300;2023-04-03T10:46:37;6.28;;;3.53;;
64367;SDS011;50692;53.314;-6.300;2023-04-03T10:52:36;7.35;;;3.63;;
64367;SDS011;50692;53.314;-6.300;2023-04-03T10:55:34;10.70;;;3.60;;
64367;SDS011;50692;53.314;-6.300;2023-04-03T10:58:44;7.22;;;3.42;;
64367;SDS011;50692;53.314;-6.300;2023-04-03T11:01:33;6.20;;;3.42;;
64367;SDS011;50692;53.314;-6.300;2023-04-03T11:04:24;8.25;;;3.70;;
64367;SDS011;50692;53.314;-6.300;2023-04-03T11:07:23;8.35;;;3.85;;
64367;SDS011;50692;53.314;-6.300;2023-04-03T11:10:17;6.13;;;3.60;;
64367;SDS011;50692;53.314;-6.300;2023-04-03T11:13:27;6.07;;;3.50;;
64367;SDS011;50692;53.314;-6.300;2023-04-03T11:16:16;6.20;;;3.58;;
64367;SDS011;50692;53.314;-6.300;2023-04-03T11:22:25;7.38;;;3.75;;
64367;SDS011;50692;53.314;-6.300;2023-04-03T11:25:19;6.93;;;3.80;;
64367;SDS011;50692;53.314;-6.300;2023-04-03T11:28:11;7.55;;;3.65;;
64367;SDS011;50692;53.314;-6.300;2023-04-03T11:36:52;6.95;;;3.72;;
64367;SDS011;50692;53.314;-6.300;2023-04-03T11:39:41;7.70;;;4.55;;
64367;SDS011;50692;53.314;-6.300;2023-04-03T11:42:37;9.18;;;4.03;;
64367;SDS011;50692;53.314;-6.300;2023-04-03T11:54:34;8.88;;;3.78;;
64367;SDS011;50692;53.314;-6.300;2023-04-03T11:57:43;6.50;;;3.47;;
64367;SDS011;50692;53.314;-6.300;2023-04-03T12:03:33;7.13;;;3.85;;
64367;SDS011;50692;53.314;-6.300;2023-04-03T12:12:33;8.75;;;4.18;;
64367;SDS011;50692;53.314;-6.300;2023-04-03T12:27:04;7.97;;;4.13;;
64367;SDS011;50692;53.314;-6.300;2023-04-03T12:30:26;7.15;;;3.05;;
64367;SDS011;50692;53.314;-6.300;2023-04-03T12:36:32;7.13;;;3.50;;
64367;SDS011;50692;53.314;-6.300;2023-04-03T12:48:56;6.18;;;3.40;;
64367;SDS011;50692;53.314;-6.300;2023-04-03T12:51:44;9.10;;;3.72;;
64367;SDS011;50692;53.314;-6.300;2023-04-03T12:54:32;7.45;;;3.95;;
64367;SDS011;50692;53.314;-6.300;2023-04-03T12:57:25;8.45;;;3.05;;
64367;SDS011;50692;53.314;-6.300;2023-04-03T13:03:28;6.10;;;2.72;;
64367;SDS011;50692;53.314;-6.300;2023-04-03T13:06:17;6.25;;;3.25;;
64367;SDS011;50692;53.314;-6.300;2023-04-03T13:09:06;7.57;;;3.42;;
64367;SDS011;50692;53.314;-6.300;2023-04-03T13:14:58;5.95;;;3.67;;
64367;SDS011;50692;53.314;-6.300;2023-04-03T13:17:46;7.82;;;3.53;;
64367;SDS011;50692;53.314;-6.300;2023-04-03T13:20:35;4.90;;;2.47;;
64367;SDS011;50692;53.314;-6.300;2023-04-03T13:23:22;6.97;;;3.03;;
64367;SDS011;50692;53.314;-6.300;2023-04-03T13:26:08;8.50;;;3.60;;
64367;SDS011;50692;53.314;-6.300;2023-04-03T13:28:56;6.22;;;3.75;;
64367;SDS011;50692;53.314;-6.300;2023-04-03T13:31:48;9.32;;;3.80;;
64367;SDS011;50692;53.314;-6.300;2023-04-03T13:34:42;8.65;;;3.78;;
64367;SDS011;50692;53.314;-6.300;2023-04-03T13:37:30;9.75;;;4.15;;
64367;SDS011;50692;53.314;-6.300;2023-04-03T13:40:17;7.35;;;3.97;;
64367;SDS011;50692;53.314;-6.300;2023-04-03T13:43:05;10.80;;;4.15;;
64367;SDS011;50692;53.314;-6.300;2023-04-03T13:48:55;9.85;;;3.40;;
64367;SDS011;50692;53.314;-6.300;2023-04-03T13:51:42;8.52;;;3.60;;
64367;SDS011;50692;53.314;-6.300;2023-04-03T13:54:29;8.10;;;3.70;;
64367;SDS011;50692;53.314;-6.300;2023-04-03T13:57:18;8.88;;;3.58;;
64367;SDS011;50692;53.314;-6.300;2023-04-03T14:00:21;6.85;;;3.30;;
64367;SDS011;50692;53.314;-6.300;2023-04-03T14:03:38;6.20;;;3.10;;
64367;SDS011;50692;53.314;-6.300;2023-04-03T14:06:30;6.30;;;3.30;;
64367;SDS011;50692;53.314;-6.300;2023-04-03T14:09:17;7.85;;;3.08;;
64367;SDS011;50692;53.314;-6.300;2023-04-03T14:12:05;5.00;;;2.80;;
64367;SDS011;50692;53.314;-6.300;2023-04-03T14:17:40;6.97;;;3.08;;
64367;SDS011;50692;53.314;-6.300;2023-04-03T14:20:26;7.40;;;3.22;;
64367;SDS011;50692;53.314;-6.300;2023-04-03T14:23:12;4.70;;;2.53;;
64367;SDS011;50692;53.314;-6.300;2023-04-03T14:25:58;7.80;;;2.58;;
64367;SDS011;50692;53.314;-6.300;2023-04-03T14:28:46;6.10;;;2.45;;
64367;SDS011;50692;53.314;-6.300;2023-04-03T14:31:33;6.35;;;2.50;;
64367;SDS011;50692;53.314;-6.300;2023-04-03T14:34:19;8.93;;;3.30;;
64367;SDS011;50692;53.314;-6.300;2023-04-03T14:37:09;5.20;;;2.63;;
64367;SDS011;50692;53.314;-6.300;2023-04-03T14:40:00;4.22;;;2.15;;
64367;SDS011;50692;53.314;-6.300;2023-04-03T14:42:49;7.40;;;3.22;;
64367;SDS011;50692;53.314;-6.300;2023-04-03T14:45:34;5.05;;;2.42;;
64367;SDS011;50692;53.314;-6.300;2023-04-03T14:48:22;4.80;;;2.20;;
64367;SDS011;50692;53.314;-6.300;2023-04-03T14:51:10;5.40;;;2.50;;
64367;SDS011;50692;53.314;-6.300;2023-04-03T14:53:58;6.40;;;2.63;;
64367;SDS011;50692;53.314;-6.300;2023-04-03T14:56:44;5.78;;;2.60;;
64367;SDS011;50692;53.314;-6.300;2023-04-03T14:59:30;4.13;;;2.22;;
64367;SDS011;50692;53.314;-6.300;2023-04-03T15:02:33;6.07;;;2.70;;
64367;SDS011;50692;53.314;-6.300;2023-04-03T15:05:20;6.15;;;2.40;;
64367;SDS011;50692;53.314;-6.300;2023-04-03T15:08:08;6.60;;;2.65;;
64367;SDS011;50692;53.314;-6.300;2023-04-03T15:11:03;4.65;;;2.33;;
64367;SDS011;50692;53.314;-6.300;2023-04-03T15:13:49;6.85;;;2.58;;
64367;SDS011;50692;53.314;-6.300;2023-04-03T15:16:35;5.93;;;2.95;;
64367;SDS011;50692;53.314;-6.300;2023-04-03T15:19:21;4.40;;;2.25;;
64367;SDS011;50692;53.314;-6.300;2023-04-03T15:22:11;3.75;;;2.20;;
64367;SDS011;50692;53.314;-6.300;2023-04-03T15:24:59;5.68;;;2.40;;
64367;SDS011;50692;53.314;-6.300;2023-04-03T15:27:45;6.20;;;2.80;;
64367;SDS011;50692;53.314;-6.300;2023-04-03T15:30:31;3.55;;;2.70;;
64367;SDS011;50692;53.314;-6.300;2023-04-03T15:33:17;4.68;;;2.03;;
64367;SDS011;50692;53.314;-6.300;2023-04-03T15:36:03;5.15;;;2.53;;
64367;SDS011;50692;53.314;-6.300;2023-04-03T15:38:51;6.07;;;2.38;;
64367;SDS011;50692;53.314;-6.300;2023-04-03T15:41:36;4.88;;;2.38;;
64367;SDS011;50692;53.314;-6.300;2023-04-03T15:44:22;5.13;;;2.40;;
64367;SDS011;50692;53.314;-6.300;2023-04-03T15:47:08;4.53;;;2.13;;
64367;SDS011;50692;53.314;-6.300;2023-04-03T15:49:54;5.57;;;2.45;;
64367;SDS011;50692;53.314;-6.300;2023-04-03T15:52:41;4.28;;;2.17;;
64367;SDS011;50692;53.314;-6.300;2023-04-03T15:55:28;6.25;;;2.60;;
64367;SDS011;50692;53.314;-6.300;2023-04-03T15:58:15;4.47;;;2.10;;
64367;SDS011;50692;53.314;-6.300;2023-04-03T16:01:01;6.18;;;2.42;;
64367;SDS011;50692;53.314;-6.300;2023-04-03T16:03:47;4.72;;;2.50;;
64367;SDS011;50692;53.314;-6.300;2023-04-03T16:06:34;5.00;;;2.15;;
64367;SDS011;50692;53.314;-6.300;2023-04-03T16:09:21;3.50;;;2.10;;
64367;SDS011;50692;53.314;-6.300;2023-04-03T16:12:07;4.95;;;2.45;;
64367;SDS011;50692;53.314;-6.300;2023-04-03T16:14:52;5.43;;;2.20;;
64367;SDS011;50692;53.314;-6.300;2023-04-03T16:17:38;3.40;;;2.60;;
64367;SDS011;50692;53.314;-6.300;2023-04-03T16:20:26;4.18;;;1.80;;
64367;SDS011;50692;53.314;-6.300;2023-04-03T16:23:12;4.43;;;1.90;;
64367;SDS011;50692;53.314;-6.300;2023-04-03T16:25:58;4.53;;;2.22;;
64367;SDS011;50692;53.314;-6.300;2023-04-03T16:28:44;4.18;;;2.08;;
64367;SDS011;50692;53.314;-6.300;2023-04-03T16:31:30;4.13;;;2.00;;
64367;SDS011;50692;53.314;-6.300;2023-04-03T16:34:18;5.10;;;2.17;;
64367;SDS011;50692;53.314;-6.300;2023-04-03T16:37:04;3.80;;;2.10;;
64367;SDS011;50692;53.314;-6.300;2023-04-03T16:39:50;5.78;;;1.88;;
64367;SDS011;50692;53.314;-6.300;2023-04-03T16:42:35;5.57;;;2.28;;
64367;SDS011;50692;53.314;-6.300;2023-04-03T16:45:22;3.65;;;1.98;;
64367;SDS011;50692;53.314;-6.300;2023-04-03T16:48:08;4.07;;;2.25;;
64367;SDS011;50692;53.314;-6.300;2023-04-03T16:50:54;3.42;;;2.05;;
64367;SDS011;50692;53.314;-6.300;2023-04-03T16:53:40;3.60;;;2.50;;
64367;SDS011;50692;53.314;-6.300;2023-04-03T16:56:26;6.55;;;2.85;;
64367;SDS011;50692;53.314;-6.300;2023-04-03T16:59:14;2.75;;;1.95;;
64367;SDS011;50692;53.314;-6.300;2023-04-03T17:02:00;4.65;;;2.33;;
64367;SDS011;50692;53.314;-6.300;2023-04-03T17:04:46;3.78;;;2.00;;
64367;SDS011;50692;53.314;-6.300;2023-04-03T17:07:32;3.83;;;2.08;;
64367;SDS011;50692;53.314;-6.300;2023-04-03T17:10:20;4.65;;;2.20;;
64367;SDS011;50692;53.314;-6.300;2023-04-03T17:13:05;4.32;;;2.17;;
64367;SDS011;50692;53.314;-6.300;2023-04-03T17:15:51;4.90;;;2.35;;
64367;SDS011;50692;53.314;-6.300;2023-04-03T17:18:37;4.63;;;2.50;;
64367;SDS011;50692;53.314;-6.300;2023-04-03T17:21:23;4.93;;;2.38;;
64367;SDS011;50692;53.314;-6.300;2023-04-03T17:24:10;4.72;;;2.20;;
64367;SDS011;50692;53.314;-6.300;2023-04-03T17:26:57;20.23;;;13.70;;
64367;SDS011;50692;53.314;-6.300;2023-04-03T17:29:44;14.18;;;8.50;;
64367;SDS011;50692;53.314;-6.300;2023-04-03T17:32:30;14.75;;;9.88;;
64367;SDS011;50692;53.314;-6.300;2023-04-03T17:35:16;10.43;;;7.10;;
64367;SDS011;50692;53.314;-6.300;2023-04-03T17:38:02;14.07;;;12.32;;
64367;SDS011;50692;53.314;-6.300;2023-04-03T17:40:49;9.10;;;5.00;;
64367;SDS011;50692;53.314;-6.300;2023-04-03T17:43:35;7.07;;;3.90;;
64367;SDS011;50692;53.314;-6.300;2023-04-03T17:46:21;9.75;;;3.97;;
64367;SDS011;50692;53.314;-6.300;2023-04-03T17:49:08;4.95;;;3.05;;
64367;SDS011;50692;53.314;-6.300;2023-04-03T17:51:59;6.93;;;3.20;;
64367;SDS011;50692;53.314;-6.300;2023-04-03T17:54:44;6.65;;;3.20;;
64367;SDS011;50692;53.314;-6.300;2023-04-03T17:57:30;6.82;;;3.60;;
64367;SDS011;50692;53.314;-6.300;2023-04-03T18:00:16;7.40;;;3.33;;
64367;SDS011;50692;53.314;-6.300;2023-04-03T18:03:02;9.82;;;4.55;;
64367;SDS011;50692;53.314;-6.300;2023-04-03T18:05:49;8.00;;;2.67;;